Time;durP1;ratioP1;P1;durP2;ratioP2;P2;SDS_P1;SDS_P2;PMS_P1;PMS_P2;Temp;Humidity;BMP_temperature;BMP_pressure;BME280_temperature;BME280_humidity;BME280_pressure;Samples;Min_cycle;Max_cycle;Signal;HPM_P1;HPM_P2
2022/04/05 00:00:07;;;;;;;11.50;9.00;;;;;;;6.14;100.00;99749.47;698547;28;1132;-79
2022/04/05 00:00:28;;;;;;;11.68;9.38;;;;;;;6.11;100.00;99757.28;695764;28;1420;-79
2022/04/05 00:00:49;;;;;;;11.73;9.63;;;;;;;6.16;100.00;99739.09;700523;28;1059;-80
2022/04/05 00:01:09;;;;;;;11.47;9.77;;;;;;;6.14;100.00;99744.28;697209;28;4271;-79
2022/04/05 00:01:42;;;;;;;11.65;9.80;;;;;;;6.08;100.00;99754.69;698076;28;1146;-79
2022/04/05 00:02:03;;;;;;;11.13;9.45;;;;;;;6.07;100.00;99745.16;696900;28;1761;-79
2022/04/05 00:02:24;;;;;;;11.70;9.60;;;;;;;6.12;100.00;99743.44;700322;28;1500;-80
2022/04/05 00:02:45;;;;;;;12.40;9.98;;;;;;;6.12;100.00;99746.03;701302;28;1416;-79
2022/04/05 00:03:05;;;;;;;11.37;9.43;;;;;;;6.10;100.00;99746.91;700528;28;1441;-79
2022/04/05 00:03:27;;;;;;;11.50;9.53;;;;;;;6.14;100.00;99749.47;694370;28;1810;-79
2022/04/05 00:03:47;;;;;;;11.80;9.32;;;;;;;6.20;100.00;99747.75;696878;28;1273;-79
2022/04/05 00:04:07;;;;;;;11.18;9.32;;;;;;;6.22;100.00;99740.84;695706;28;4410;-79
2022/04/05 00:04:28;;;;;;;12.63;10.03;;;;;;;6.16;100.00;99749.47;698183;28;1290;-80
2022/04/05 00:04:56;;;;;;;12.15;10.35;;;;;;;6.13;100.00;99745.19;697807;28;1328;-80
2022/04/05 00:05:20;;;;;;;13.13;10.50;;;;;;;6.11;100.00;99762.47;700654;28;1272;-79
2022/04/05 00:05:41;;;;;;;12.95;10.48;;;;;;;6.07;100.00;99755.53;700564;28;1893;-79
2022/04/05 00:06:01;;;;;;;13.90;11.30;;;;;;;6.11;100.00;99741.69;701340;28;1313;-78
2022/04/05 00:06:22;;;;;;;14.00;11.63;;;;;;;6.09;100.00;99737.38;700342;28;1467;-79
2022/04/05 00:06:43;;;;;;;13.30;11.27;;;;;;;6.10;100.00;99745.16;698997;28;955;-79
2022/04/05 00:07:06;;;;;;;13.60;11.65;;;;;;;6.16;100.00;99744.28;693934;28;4349;-79
2022/04/05 00:07:36;;;;;;;13.50;10.57;;;;;;;6.12;100.00;99747.78;692645;28;1082;-78
2022/04/05 00:07:56;;;;;;;14.88;12.43;;;;;;;6.13;100.00;99745.19;691530;28;1664;-80
2022/04/05 00:08:17;;;;;;;15.67;12.80;;;;;;;6.15;100.00;99737.38;691716;28;1307;-80
2022/04/05 00:08:37;;;;;;;14.75;12.52;;;;;;;6.19;100.00;99743.41;692715;28;1522;-80
2022/04/05 00:08:58;;;;;;;14.77;12.73;;;;;;;6.22;100.00;99748.63;688991;28;1885;-79
2022/04/05 00:09:18;;;;;;;15.23;12.57;;;;;;;6.21;100.00;99746.88;688352;28;1356;-79
2022/04/05 00:09:45;;;;;;;15.03;12.40;;;;;;;6.18;100.00;99757.28;693187;28;1641;-79
2022/04/05 00:10:05;;;;;;;14.00;11.98;;;;;;;6.23;100.00;99742.53;694498;28;4296;-79
2022/04/05 00:10:26;;;;;;;13.40;11.70;;;;;;;6.19;100.00;99744.28;694696;28;1189;-79
2022/04/05 00:10:47;;;;;;;14.30;12.10;;;;;;;6.21;100.00;99736.50;689140;28;1473;-78
2022/04/05 00:11:10;;;;;;;15.43;12.83;;;;;;;6.22;100.00;99740.84;695313;28;1961;-79
2022/04/05 00:11:31;;;;;;;14.60;12.55;;;;;;;6.17;100.00;99739.97;697524;28;1532;-81
2022/04/05 00:11:52;;;;;;;14.75;12.20;;;;;;;6.16;100.00;99740.84;694623;28;1922;-80
2022/04/05 00:12:24;;;;;;;14.53;12.07;;;;;;;6.17;100.00;99751.19;694305;28;1509;-79
2022/04/05 00:12:45;;;;;;;14.63;12.55;;;;;;;6.16;100.00;99746.88;694020;28;1359;-80
2022/04/05 00:13:05;;;;;;;15.83;13.03;;;;;;;6.22;100.00;99738.25;694743;28;4365;-79
2022/04/05 00:13:26;;;;;;;14.73;12.55;;;;;;;6.21;100.00;99750.34;693616;28;1350;-80
2022/04/05 00:13:46;;;;;;;14.48;12.60;;;;;;;6.25;100.00;99744.28;692223;28;1451;-79
2022/04/05 00:14:08;;;;;;;14.40;12.37;;;;;;;6.17;100.00;99730.44;694716;28;1423;-81
2022/04/05 00:14:29;;;;;;;15.25;12.63;;;;;;;6.23;100.00;99739.94;697936;28;1384;-80
2022/04/05 00:14:50;;;;;;;15.33;12.63;;;;;;;6.26;100.00;99747.75;700272;28;1229;-80
2022/04/05 00:15:10;;;;;;;14.23;11.75;;;;;;;6.21;100.00;99744.28;694669;28;1328;-79
2022/04/05 00:15:35;;;;;;;14.80;11.75;;;;;;;6.22;100.00;99748.63;693946;28;1756;-79
2022/04/05 00:15:55;;;;;;;15.23;11.98;;;;;;;6.28;100.00;99746.84;692707;28;2642;-80
2022/04/05 00:16:16;;;;;;;15.27;11.82;;;;;;;6.29;100.00;99740.81;690672;28;4327;-80
2022/04/05 00:16:36;;;;;;;15.50;11.70;;;;;;;6.27;100.00;99746.88;692652;28;3869;-80
2022/04/05 00:16:57;;;;;;;15.43;11.52;;;;;;;6.20;100.00;99743.41;692153;28;1268;-80
2022/04/05 00:17:21;;;;;;;14.20;11.48;;;;;;;6.25;100.00;99751.22;697383;28;1277;-79
2022/04/05 00:17:41;;;;;;;15.40;12.70;;;;;;;6.28;100.00;99743.41;701510;28;920;-79
2022/04/05 00:18:03;;;;;;;15.27;12.65;;;;;;;6.29;100.00;99734.75;701051;28;1171;-80
2022/04/05 00:18:23;;;;;;;14.85;12.38;;;;;;;6.27;100.00;99741.66;701083;28;1036;-79
2022/04/05 00:18:43;;;;;;;14.63;12.40;;;;;;;6.29;100.00;99747.75;701716;28;1056;-79
2022/04/05 00:19:13;;;;;;;15.00;12.37;;;;;;;6.27;100.00;99729.56;699521;28;4268;-79
2022/04/05 00:19:33;;;;;;;14.82;11.73;;;;;;;6.19;100.00;99744.28;697739;28;1091;-79
2022/04/05 00:19:54;;;;;;;15.17;11.73;;;;;;;6.17;100.00;99752.94;690578;28;1594;-79
2022/04/05 00:20:14;;;;;;;15.32;11.88;;;;;;;6.14;100.00;99740.84;690119;28;1112;-79
2022/04/05 00:20:35;;;;;;;16.57;12.53;;;;;;;6.17;100.00;99740.81;691721;28;1470;-79
2022/04/05 00:20:55;;;;;;;15.75;12.65;;;;;;;6.16;100.00;99753.81;692165;28;1339;-79
2022/04/05 00:21:16;;;;;;;15.27;12.90;;;;;;;6.17;100.00;99742.56;692593;28;1458;-79
2022/04/05 00:21:36;;;;;;;16.27;13.05;;;;;;;6.17;100.00;99745.16;697991;28;1102;-79
2022/04/05 00:21:57;;;;;;;16.63;12.95;;;;;;;6.22;100.00;99749.47;701331;28;1465;-79
2022/04/05 00:22:17;;;;;;;15.30;12.23;;;;;;;6.24;100.00;99739.94;700171;28;4249;-79
2022/04/05 00:22:38;;;;;;;15.77;12.27;;;;;;;6.29;100.00;99745.16;693217;28;1342;-79
2022/04/05 00:22:58;;;;;;;14.97;12.37;;;;;;;6.33;100.00;99744.28;693779;28;1286;-78
2022/04/05 00:23:19;;;;;;;16.60;14.03;;;;;;;6.32;100.00;99739.94;693643;28;1661;-78
2022/04/05 00:23:39;;;;;;;16.98;13.63;;;;;;;6.30;100.00;99746.88;694576;28;1274;-79
2022/04/05 00:24:00;;;;;;;18.27;13.83;;;;;;;6.32;100.00;99755.50;696786;28;1442;-79
2022/04/05 00:24:21;;;;;;;20.45;15.27;;;;;;;6.38;100.00;99750.28;699501;28;1474;-79
2022/04/05 00:24:41;;;;;;;19.48;15.45;;;;;;;6.45;100.00;99751.16;697551;28;1383;-79
2022/04/05 00:25:03;;;;;;;19.37;15.50;;;;;;;6.48;100.00;99741.63;694118;28;4302;-79
2022/04/05 00:25:23;;;;;;;17.98;14.48;;;;;;;6.42;100.00;99746.81;697296;28;1777;-80
2022/04/05 00:25:44;;;;;;;17.87;14.40;;;;;;;6.39;100.00;99739.06;699633;28;1305;-79
2022/04/05 00:26:04;;;;;;;18.05;14.63;;;;;;;6.37;100.00;99742.50;695255;28;1276;-79
2022/04/05 00:26:25;;;;;;;18.27;15.00;;;;;;;6.36;100.00;99731.28;694311;28;1639;-79
2022/04/05 00:26:45;;;;;;;17.25;14.35;;;;;;;6.41;100.00;99745.13;691986;28;1187;-79
2022/04/05 00:27:05;;;;;;;17.90;14.20;;;;;;;6.36;100.00;99739.06;688915;28;1284;-79
2022/04/05 00:27:28;;;;;;;18.77;15.10;;;;;;;6.39;100.00;99746.84;690086;28;1350;-80
2022/04/05 00:27:49;;;;;;;18.40;15.35;;;;;;;6.41;100.00;99741.63;692390;28;1302;-79
2022/04/05 00:28:09;;;;;;;17.83;14.30;;;;;;;6.42;100.00;99756.34;690496;28;5486;-80
2022/04/05 00:28:33;;;;;;;17.40;13.93;;;;;;;6.45;100.00;99744.25;693602;28;1269;-80
2022/04/05 00:28:54;;;;;;;17.02;14.15;;;;;;;6.40;100.00;99743.38;697684;28;1283;-79
2022/04/05 00:29:14;;;;;;;17.80;14.25;;;;;;;6.42;100.00;99741.63;697224;28;1312;-79
2022/04/05 00:29:35;;;;;;;17.17;13.20;;;;;;;6.40;100.00;99743.38;698729;28;1752;-79
2022/04/05 00:29:55;;;;;;;16.88;14.35;;;;;;;6.42;100.00;99741.63;697497;28;1115;-79
2022/04/05 00:30:16;;;;;;;17.10;13.90;;;;;;;6.37;100.00;99737.31;699641;28;1734;-79
2022/04/05 00:30:37;;;;;;;17.20;14.10;;;;;;;6.33;100.00;99741.66;691447;28;1218;-79
2022/04/05 00:30:57;;;;;;;18.02;14.05;;;;;;;6.41;100.00;99737.34;693822;28;1802;-79
2022/04/05 00:31:17;;;;;;;18.17;14.40;;;;;;;6.34;100.00;99738.22;696985;28;4290;-79
2022/04/05 00:31:41;;;;;;;17.92;14.43;;;;;;;6.35;100.00;99737.31;696957;28;1422;-79
2022/04/05 00:32:01;;;;;;;18.13;14.47;;;;;;;6.34;100.00;99738.22;697596;28;1783;-79
2022/04/05 00:32:28;;;;;;;18.03;13.97;;;;;;;6.37;100.00;99743.41;697900;28;1146;-80
2022/04/05 00:32:51;;;;;;;18.67;14.57;;;;;;;6.38;100.00;99752.88;696018;28;1806;-79
2022/04/05 00:33:33;;;;;;;18.25;14.57;;;;;;;6.35;100.00;99739.91;697375;28;1575;-79
2022/04/05 00:33:53;;;;;;;18.00;14.38;;;;;;;6.34;100.00;99755.50;696471;28;1288;-79
2022/04/05 00:34:14;;;;;;;17.47;13.97;;;;;;;6.41;100.00;99734.72;694853;28;4403;-79
2022/04/05 00:34:40;;;;;;;17.80;14.02;;;;;;;6.43;100.00;99743.38;689372;28;1731;-79
2022/04/05 00:35:00;;;;;;;19.85;14.40;;;;;;;6.42;100.00;99751.16;693081;28;1769;-79
2022/04/05 00:35:23;;;;;;;16.90;14.03;;;;;;;6.42;100.00;99739.03;695345;28;1455;-79
2022/04/05 00:35:44;;;;;;;16.63;13.52;;;;;;;6.42;100.00;99739.03;692650;28;1380;-79
2022/04/05 00:36:04;;;;;;;16.73;13.40;;;;;;;6.48;100.00;99746.81;689314;28;1485;-79
2022/04/05 00:36:25;;;;;;;16.20;13.25;;;;;;;6.44;100.00;99745.09;689163;28;1096;-79
2022/04/05 00:36:46;;;;;;;15.52;13.48;;;;;;;6.43;100.00;99735.56;691486;28;1382;-79
2022/04/05 00:37:09;;;;;;;16.77;13.88;;;;;;;6.47;100.00;99744.22;689119;28;4293;-79
2022/04/05 00:37:29;;;;;;;16.10;13.03;;;;;;;6.42;100.00;99757.22;692342;28;1839;-79
2022/04/05 00:37:53;;;;;;;15.43;12.73;;;;;;;6.38;100.00;99736.47;694505;28;1338;-78
2022/04/05 00:38:14;;;;;;;16.27;13.48;;;;;;;6.42;100.00;99740.78;695000;28;1012;-79
2022/04/05 00:38:34;;;;;;;17.00;13.90;;;;;;;6.46;100.00;99738.16;697623;28;1521;-79
2022/04/05 00:38:57;;;;;;;16.73;13.48;;;;;;;6.43;100.00;99747.72;694585;28;1170;-79
2022/04/05 00:39:18;;;;;;;17.27;13.60;;;;;;;6.44;100.00;99739.91;695020;28;1186;-79
2022/04/05 00:39:39;;;;;;;16.38;13.30;;;;;;;6.45;100.00;99761.53;694272;28;1786;-79
2022/04/05 00:39:59;;;;;;;17.33;14.27;;;;;;;6.42;100.00;99766.75;692077;28;4359;-79
2022/04/05 00:40:20;;;;;;;17.23;13.70;;;;;;;6.39;100.00;99746.84;696035;28;1650;-79
2022/04/05 00:40:40;;;;;;;16.83;13.38;;;;;;;6.41;100.00;99736.44;693646;28;1008;-79
2022/04/05 00:41:01;;;;;;;16.50;13.50;;;;;;;6.40;100.00;99733.00;691611;28;1160;-79
2022/04/05 00:41:21;;;;;;;15.53;13.30;;;;;;;6.41;100.00;99729.53;691419;28;1481;-79
2022/04/05 00:41:47;;;;;;;16.23;13.38;;;;;;;6.51;100.00;99729.50;688819;28;1361;-79
2022/04/05 00:42:09;;;;;;;15.85;13.30;;;;;;;6.51;100.00;99729.50;694031;28;1500;-79
2022/04/05 00:42:30;;;;;;;15.88;13.60;;;;;;;6.52;100.00;99726.91;696343;28;1676;-79
2022/04/05 00:42:51;;;;;;;15.65;12.90;;;;;;;6.53;100.00;99738.16;697458;28;1212;-79
2022/04/05 00:43:12;;;;;;;15.57;13.00;;;;;;;6.45;100.00;99735.56;691928;28;4388;-78
2022/04/05 00:43:32;;;;;;;15.90;13.20;;;;;;;6.41;100.00;99723.47;694221;28;1554;-79
2022/04/05 00:44:00;;;;;;;15.93;12.73;;;;;;;6.37;100.00;99739.91;699218;28;1423;-79
2022/04/05 00:44:30;;;;;;;17.02;13.70;;;;;;;6.55;100.00;99718.22;697422;28;1774;-78
2022/04/05 00:44:50;;;;;;;17.13;13.65;;;;;;;6.50;100.00;99735.56;699317;28;1630;-79
2022/04/05 00:45:11;;;;;;;16.43;13.63;;;;;;;6.45;100.00;99733.84;697333;28;1688;-79
2022/04/05 00:45:35;;;;;;;17.00;14.13;;;;;;;6.48;100.00;99744.22;697612;28;1263;-78
2022/04/05 00:45:55;;;;;;;16.92;13.45;;;;;;;6.45;100.00;99736.44;695162;28;1455;-79
2022/04/05 00:46:16;;;;;;;16.20;12.88;;;;;;;6.42;100.00;99741.63;694490;28;5228;-78
2022/04/05 00:46:36;;;;;;;16.83;13.10;;;;;;;6.44;100.00;99734.72;692912;28;1309;-78
2022/04/05 00:47:09;;;;;;;17.33;12.95;;;;;;;6.41;100.00;99742.53;691425;28;1966;-78
2022/04/05 00:47:30;;;;;;;17.40;13.95;;;;;;;6.40;100.00;99740.78;693245;28;1933;-78
2022/04/05 00:47:51;;;;;;;16.60;13.37;;;;;;;6.36;100.00;99744.25;691228;28;1718;-79
2022/04/05 00:48:44;;;;;;;17.02;13.85;;;;;;;6.34;100.00;99732.16;691287;28;1505;-79
2022/04/05 00:49:04;;;;;;;17.20;13.85;;;;;;;6.30;100.00;99744.28;690015;28;4315;-78
2022/04/05 00:49:31;;;;;;;17.48;13.75;;;;;;;6.37;100.00;99725.22;697927;28;1673;-79
2022/04/05 00:49:53;;;;;;;17.98;14.38;;;;;;;6.33;100.00;99725.22;699106;28;1116;-79
2022/04/05 00:50:37;;;;;;;17.92;14.27;;;;;;;6.32;100.00;99736.50;696311;28;1429;-78
2022/04/05 00:51:29;;;;;;;17.75;13.68;;;;;;;6.33;100.00;99726.09;691402;28;1412;-79
2022/04/05 00:51:49;;;;;;;17.35;14.60;;;;;;;6.39;100.00;99733.84;691520;28;1206;-78
2022/04/05 00:52:11;;;;;;;17.27;14.13;;;;;;;6.38;100.00;99734.72;691879;28;5129;-81
2022/04/05 00:52:31;;;;;;;18.45;15.00;;;;;;;6.45;100.00;99731.25;693449;28;1398;-79
2022/04/05 00:52:52;;;;;;;19.35;15.07;;;;;;;6.42;100.00;99741.63;696274;28;1461;-78
2022/04/05 00:53:15;;;;;;;20.23;15.20;;;;;;;6.44;100.00;99739.91;694602;28;1491;-78
2022/04/05 00:53:36;;;;;;;20.45;16.05;;;;;;;6.53;100.00;99730.38;693844;28;1506;-78
2022/04/05 00:54:05;;;;;;;20.05;15.52;;;;;;;6.47;100.00;99755.47;695197;28;1335;-79
2022/04/05 00:54:28;;;;;;;20.55;15.63;;;;;;;6.53;100.00;99739.00;697656;28;1211;-79
2022/04/05 00:54:52;;;;;;;19.73;15.40;;;;;;;6.45;100.00;99733.84;696736;28;1381;-79
2022/04/05 00:55:22;;;;;;;18.55;14.88;;;;;;;6.52;100.00;99747.69;685464;28;4290;-79
2022/04/05 00:55:43;;;;;;;18.67;14.82;;;;;;;6.50;100.00;99749.41;694246;28;957;-78
2022/04/05 00:56:06;;;;;;;18.85;14.48;;;;;;;6.48;100.00;99765.00;695820;28;1071;-78
2022/04/05 00:56:32;;;;;;;19.17;15.63;;;;;;;6.52;100.00;99720.84;692639;28;1599;-79
2022/04/05 00:56:56;;;;;;;18.67;15.40;;;;;;;6.54;100.00;99737.28;698802;28;1328;-78
2022/04/05 00:57:19;;;;;;;19.38;15.00;;;;;;;6.50;100.00;99738.19;700489;28;1665;-79
2022/04/05 00:57:41;;;;;;;18.45;14.88;;;;;;;6.51;100.00;99726.91;695669;28;1394;-78
2022/04/05 00:58:02;;;;;;;17.33;14.70;;;;;;;6.50;100.00;99751.16;688375;28;4274;-78
2022/04/05 00:58:24;;;;;;;18.58;15.07;;;;;;;6.54;100.00;99724.31;690492;28;1376;-79
2022/04/05 00:58:50;;;;;;;18.80;15.18;;;;;;;6.58;100.00;99732.06;689397;28;1332;-78
2022/04/05 00:59:13;;;;;;;18.38;13.73;;;;;;;6.56;100.00;99748.53;688789;28;1614;-78
2022/04/05 00:59:35;;;;;;;18.63;14.82;;;;;;;6.58;100.00;99726.03;692372;28;1251;-79
2022/04/05 00:59:59;;;;;;;17.80;14.43;;;;;;;6.56;100.00;99731.22;697203;28;1468;-78
2022/04/05 01:00:20;;;;;;;18.02;14.95;;;;;;;6.64;100.00;99731.19;697913;28;959;-79
2022/04/05 01:00:40;;;;;;;18.63;15.55;;;;;;;6.73;100.00;99727.69;694812;28;1357;-78
2022/04/05 01:01:02;;;;;;;18.95;15.43;;;;;;;6.69;100.00;99733.75;697491;28;4330;-79
2022/04/05 01:01:27;;;;;;;18.73;14.95;;;;;;;6.66;100.00;99729.47;698978;28;1645;-78
2022/04/05 01:01:49;;;;;;;18.60;14.18;;;;;;;6.70;100.00;99753.69;697724;28;1413;-78
2022/04/05 01:02:12;;;;;;;18.70;15.02;;;;;;;6.65;100.00;99730.31;692895;28;1656;-78
2022/04/05 01:02:36;;;;;;;18.33;14.80;;;;;;;6.64;100.00;99726.84;694340;28;1604;-78
2022/04/05 01:02:58;;;;;;;18.52;15.27;;;;;;;6.62;100.00;99733.78;692215;28;1193;-78
2022/04/05 01:03:20;;;;;;;18.48;14.95;;;;;;;6.63;100.00;99734.66;692027;28;1720;-78
2022/04/05 01:03:49;;;;;;;19.10;15.15;;;;;;;6.62;100.00;99732.94;694525;28;1464;-79
2022/04/05 01:04:11;;;;;;;18.65;14.45;;;;;;;6.58;100.00;99739.88;689921;28;4309;-78
2022/04/05 01:04:34;;;;;;;17.77;14.82;;;;;;;6.63;100.00;99734.66;693401;28;1636;-78
2022/04/05 01:05:02;;;;;;;18.45;14.50;;;;;;;6.56;100.00;99753.72;691937;28;1896;-79
2022/04/05 01:05:29;;;;;;;17.70;14.50;;;;;;;6.56;100.00;99748.53;692820;28;939;-78
2022/04/05 01:05:55;;;;;;;18.63;14.50;;;;;;;6.54;100.00;99758.06;692005;28;1423;-78
2022/04/05 01:06:46;;;;;;;17.95;14.30;;;;;;;6.55;100.00;99726.00;692188;28;1229;-78
2022/04/05 01:07:10;;;;;;;17.88;14.77;;;;;;;6.60;100.00;99727.72;687827;28;4317;-78
2022/04/05 01:07:32;;;;;;;19.05;14.93;;;;;;;6.53;100.00;99733.81;694050;28;1191;-78
2022/04/05 01:07:56;;;;;;;19.60;15.20;;;;;;;6.51;100.00;99725.19;697178;28;944;-78
2022/04/05 01:08:19;;;;;;;19.60;15.32;;;;;;;6.56;100.00;99733.84;697272;28;1499;-79
2022/04/05 01:08:41;;;;;;;19.45;15.52;;;;;;;6.53;100.00;99739.00;697492;28;1430;-78
2022/04/05 01:09:02;;;;;;;18.00;14.85;;;;;;;6.47;100.00;99737.31;693487;28;1243;-79
2022/04/05 01:09:23;;;;;;;19.17;15.35;;;;;;;6.53;100.00;99743.34;694267;28;1521;-78
2022/04/05 01:09:44;;;;;;;19.95;15.48;;;;;;;6.61;100.00;99718.22;695197;28;1445;-77
2022/04/05 01:10:06;;;;;;;18.63;14.45;;;;;;;6.58;100.00;99724.28;695255;28;4339;-78
2022/04/05 01:10:36;;;;;;;19.25;14.60;;;;;;;6.56;100.00;99728.63;695651;28;1716;-78
2022/04/05 01:10:59;;;;;;;19.52;15.35;;;;;;;6.61;100.00;99731.22;693986;28;1511;-79
2022/04/05 01:11:33;;;;;;;19.25;15.25;;;;;;;6.58;100.00;99734.69;693437;28;1973;-78
2022/04/05 01:11:53;;;;;;;19.98;15.43;;;;;;;6.54;100.00;99726.91;691206;28;1324;-77
2022/04/05 01:12:14;;;;;;;20.42;15.10;;;;;;;6.65;100.00;99727.72;692178;28;1962;-78
2022/04/05 01:12:34;;;;;;;20.00;15.53;;;;;;;6.62;100.00;99738.13;694000;28;1694;-78
2022/04/05 01:12:55;;;;;;;19.90;15.77;;;;;;;6.71;100.00;99732.88;696556;28;3352;-78
2022/04/05 01:13:20;;;;;;;20.27;16.13;;;;;;;6.68;100.00;99738.09;693433;28;4313;-78
2022/04/05 01:13:41;;;;;;;19.65;15.85;;;;;;;6.64;100.00;99739.84;693084;28;1083;-78
2022/04/05 01:14:02;;;;;;;19.90;15.73;;;;;;;6.69;100.00;99728.56;697822;28;1223;-78
2022/04/05 01:14:22;;;;;;;19.90;15.82;;;;;;;6.69;100.00;99738.94;697109;28;2353;-77
2022/04/05 01:14:43;;;;;;;20.43;15.20;;;;;;;6.70;100.00;99725.09;698372;28;1340;-78
2022/04/05 01:15:04;;;;;;;19.70;15.03;;;;;;;6.76;100.00;99736.34;696762;28;1358;-78
2022/04/05 01:15:24;;;;;;;20.15;15.27;;;;;;;6.76;100.00;99732.88;691573;28;1347;-79
2022/04/05 01:15:45;;;;;;;20.60;15.67;;;;;;;6.81;100.00;99738.91;691459;28;1062;-78
2022/04/05 01:16:05;;;;;;;21.92;16.20;;;;;;;6.80;100.00;99745.84;689890;28;4339;-78
2022/04/05 01:16:26;;;;;;;21.65;16.77;;;;;;;6.75;100.00;99732.00;695744;28;1363;-78
2022/04/05 01:16:47;;;;;;;20.73;15.80;;;;;;;6.75;100.00;99732.00;692989;28;1293;-78
2022/04/05 01:17:08;;;;;;;22.33;16.00;;;;;;;6.78;100.00;99724.22;692728;28;1177;-78
2022/04/05 01:17:28;;;;;;;21.63;16.38;;;;;;;6.75;100.00;99728.56;694358;28;1188;-78
2022/04/05 01:17:50;;;;;;;21.10;16.10;;;;;;;6.71;100.00;99730.28;690285;28;1735;-78
2022/04/05 01:18:12;;;;;;;22.02;16.60;;;;;;;6.72;100.00;99752.81;695520;28;1575;-78
2022/04/05 01:18:33;;;;;;;21.33;16.65;;;;;;;6.73;100.00;99736.34;695345;28;1762;-78
2022/04/05 01:18:54;;;;;;;22.48;16.80;;;;;;;6.76;100.00;99723.34;694436;28;878;-78
2022/04/05 01:19:14;;;;;;;21.80;16.10;;;;;;;6.76;100.00;99725.94;694671;28;4310;-78
2022/04/05 01:19:35;;;;;;;21.73;16.10;;;;;;;6.70;100.00;99728.59;700410;28;2539;-78
2022/04/05 01:19:55;;;;;;;21.02;15.85;;;;;;;6.69;100.00;99726.84;699078;28;1293;-79
2022/04/05 01:20:16;;;;;;;21.40;15.50;;;;;;;6.67;100.00;99732.91;695601;28;1140;-79
2022/04/05 01:20:36;;;;;;;20.85;15.75;;;;;;;6.80;100.00;99727.66;694025;28;1503;-77
2022/04/05 01:20:57;;;;;;;20.57;15.87;;;;;;;6.82;100.00;99725.06;694337;28;1569;-78
2022/04/05 01:21:18;;;;;;;20.85;15.88;;;;;;;6.86;100.00;99729.38;691666;28;1143;-78
2022/04/05 01:21:39;;;;;;;21.38;16.13;;;;;;;6.86;100.00;99734.56;689631;28;829;-78
2022/04/05 01:22:00;;;;;;;21.65;15.07;;;;;;;6.91;100.00;99726.75;694681;28;4313;-78
2022/04/05 01:22:21;;;;;;;21.38;16.10;;;;;;;6.88;100.00;99729.34;690893;28;1262;-78
2022/04/05 01:22:45;;;;;;;21.47;15.87;;;;;;;6.90;100.00;99730.22;696069;28;1361;-78
2022/04/05 01:23:06;;;;;;;18.35;14.55;;;;;;;6.88;100.00;99731.94;695994;28;1244;-77
2022/04/05 01:23:26;;;;;;;19.90;14.90;;;;;;;6.92;100.00;99726.75;696581;28;1611;-78
2022/04/05 01:24:08;;;;;;;19.27;14.38;;;;;;;6.86;100.00;99728.50;695613;28;1655;-79
2022/04/05 01:24:29;;;;;;;19.50;14.45;;;;;;;6.88;100.00;99737.16;696230;28;1759;-79
2022/04/05 01:24:51;;;;;;;18.95;14.00;;;;;;;6.86;100.00;99733.72;695780;28;1371;-79
2022/04/05 01:25:19;;;;;;;18.48;14.52;;;;;;;6.89;100.00;99731.94;694004;28;4260;-79
2022/04/05 01:25:42;;;;;;;20.20;15.07;;;;;;;6.89;100.00;99731.09;691893;28;1211;-79
2022/04/05 01:26:10;;;;;;;18.98;14.25;;;;;;;6.88;100.00;99731.94;695235;28;1383;-79
2022/04/05 01:27:16;;;;;;;19.42;14.85;;;;;;;6.93;100.00;99728.47;700130;28;1069;-78
2022/04/05 01:27:37;;;;;;;21.77;14.73;;;;;;;6.90;100.00;99738.03;691198;28;1651;-78
2022/04/05 01:27:57;;;;;;;17.93;14.30;;;;;;;6.99;100.00;99730.16;688511;28;1017;-79
2022/04/05 01:28:21;;;;;;;18.27;13.73;;;;;;;6.96;100.00;99727.59;689380;28;4536;-78
2022/04/05 01:28:41;;;;;;;18.50;13.13;;;;;;;6.95;100.00;99725.84;692817;28;1500;-78
2022/04/05 01:29:02;;;;;;;18.23;13.32;;;;;;;6.94;100.00;99722.41;691416;28;1344;-78
2022/04/05 01:29:24;;;;;;;18.53;13.90;;;;;;;6.96;100.00;99732.78;691332;28;1147;-78
2022/04/05 01:29:47;;;;;;;19.35;13.90;;;;;;;6.92;100.00;99741.47;692133;28;1205;-78
2022/04/05 01:30:09;;;;;;;17.95;13.50;;;;;;;7.06;100.00;99731.00;693587;28;1508;-79
2022/04/05 01:30:32;;;;;;;18.60;13.63;;;;;;;7.03;100.00;99739.66;696116;28;1800;-79
2022/04/05 01:30:52;;;;;;;17.48;13.35;;;;;;;7.00;100.00;99737.09;696002;28;1497;-79
2022/04/05 01:31:23;;;;;;;17.38;13.77;;;;;;;6.97;100.00;99737.97;693079;28;4424;-78
2022/04/05 01:31:48;;;;;;;18.00;13.85;;;;;;;6.97;100.00;99729.31;689861;28;1577;-78
2022/04/05 01:32:09;;;;;;;17.65;13.23;;;;;;;6.91;100.00;99731.94;688561;28;1296;-79
2022/04/05 01:32:29;;;;;;;18.20;13.77;;;;;;;7.01;100.00;99740.56;689651;28;1630;-78
2022/04/05 01:32:50;;;;;;;16.40;12.10;;;;;;;7.00;100.00;99739.69;689780;28;1346;-79
2022/04/05 01:33:11;;;;;;;16.65;12.25;;;;;;;6.95;100.00;99737.13;693249;28;1643;-79
2022/04/05 01:33:31;;;;;;;17.03;12.90;;;;;;;6.99;100.00;99733.66;695523;28;1301;-77
2022/04/05 01:33:55;;;;;;;16.67;12.90;;;;;;;7.06;100.00;99731.88;695881;28;1151;-78
2022/04/05 01:34:18;;;;;;;16.95;12.70;;;;;;;7.07;100.00;99738.78;690345;28;4468;-78
2022/04/05 01:34:39;;;;;;;17.58;13.20;;;;;;;7.11;100.00;99732.69;697232;28;1370;-78
2022/04/05 01:35:00;;;;;;;16.38;12.27;;;;;;;7.10;100.00;99736.19;693092;28;1346;-77
2022/04/05 01:35:20;;;;;;;15.85;11.93;;;;;;;7.06;100.00;99739.69;691561;28;1438;-78
2022/04/05 01:35:42;;;;;;;16.17;12.33;;;;;;;7.09;100.00;99744.84;694012;28;1015;-78
2022/04/05 01:36:03;;;;;;;15.52;11.82;;;;;;;7.10;100.00;99741.38;691731;28;1366;-77
2022/04/05 01:36:24;;;;;;;16.63;12.00;;;;;;;7.04;100.00;99738.81;687555;28;1385;-78
2022/04/05 01:36:50;;;;;;;16.48;12.27;;;;;;;7.08;100.00;99739.66;692724;28;1658;-78
2022/04/05 01:37:11;;;;;;;15.98;12.32;;;;;;;7.10;100.00;99743.09;691566;28;4287;-78
2022/04/05 01:37:32;;;;;;;14.63;12.20;;;;;;;7.06;100.00;99746.59;694667;28;1292;-78
2022/04/05 01:37:56;;;;;;;15.23;12.10;;;;;;;7.03;100.00;99744.00;698917;28;1454;-78
2022/04/05 01:38:17;;;;;;;14.75;11.57;;;;;;;7.06;100.00;99744.00;696260;28;915;-78
2022/04/05 01:38:40;;;;;;;14.77;11.77;;;;;;;7.08;100.00;99739.66;693695;28;1233;-78
2022/04/05 01:39:01;;;;;;;15.90;12.10;;;;;;;7.05;100.00;99737.06;693557;28;4551;-78
2022/04/05 01:39:24;;;;;;;15.80;11.47;;;;;;;7.03;100.00;99736.22;693753;28;1604;-78
2022/04/05 01:39:44;;;;;;;15.90;11.88;;;;;;;6.97;100.00;99748.38;692214;28;1728;-77
2022/04/05 01:40:06;;;;;;;14.97;11.27;;;;;;;7.05;100.00;99758.72;693547;28;4285;-78
2022/04/05 01:40:26;;;;;;;14.43;10.68;;;;;;;7.03;100.00;99742.28;699750;28;1668;-78
2022/04/05 01:40:47;;;;;;;15.17;11.13;;;;;;;7.03;100.00;99741.41;699848;28;1735;-78
2022/04/05 01:41:08;;;;;;;14.88;11.40;;;;;;;6.99;100.00;99737.97;704450;27;1758;-78
2022/04/05 01:41:28;;;;;;;14.57;11.70;;;;;;;7.00;100.00;99750.09;696532;28;1439;-78
2022/04/05 01:41:55;;;;;;;14.52;11.40;;;;;;;7.00;100.00;99737.09;697117;28;1384;-79
2022/04/05 01:42:16;;;;;;;14.90;11.27;;;;;;;6.98;100.00;99751.84;696186;28;1267;-78
2022/04/05 01:42:37;;;;;;;14.88;10.88;;;;;;;7.05;100.00;99737.94;696309;28;1547;-78
2022/04/05 01:42:58;;;;;;;15.10;11.48;;;;;;;7.12;100.00;99737.03;696805;28;1522;-79
2022/04/05 01:43:19;;;;;;;14.73;11.30;;;;;;;7.22;100.00;99727.44;690701;28;4866;-78
2022/04/05 01:43:40;;;;;;;13.90;11.10;;;;;;;7.14;100.00;99737.91;691616;28;1353;-78
2022/04/05 01:44:06;;;;;;;14.10;10.40;;;;;;;7.13;100.00;99741.38;696343;28;1271;-79
2022/04/05 01:44:29;;;;;;;13.90;10.27;;;;;;;7.14;100.00;99737.03;696201;28;1276;-78
2022/04/05 01:44:49;;;;;;;12.70;10.02;;;;;;;7.07;100.00;99732.72;693862;28;1346;-78
2022/04/05 01:45:10;;;;;;;12.97;9.67;;;;;;;7.03;100.00;99737.06;696337;28;1367;-78
2022/04/05 01:45:31;;;;;;;12.82;9.60;;;;;;;7.09;100.00;99734.47;693026;28;1543;-78
2022/04/05 01:45:51;;;;;;;13.82;10.48;;;;;;;7.11;100.00;99737.91;693263;28;1760;-78
2022/04/05 01:46:11;;;;;;;14.20;10.77;;;;;;;7.20;100.00;99736.13;691243;28;4312;-78
2022/04/05 01:46:33;;;;;;;15.02;10.80;;;;;;;7.18;100.00;99740.47;691630;28;1151;-78
2022/04/05 01:46:54;;;;;;;13.93;10.70;;;;;;;7.14;100.00;99727.50;693493;28;1621;-77